GCFV Airport Information

Runway Information
Runway 01 Length 11598 ft width 148 ft
Elevation 37 ft Threshold 3481 ft Heading 2
Runway 19 Length 11598 ft Width 148 ft
Elevation 75 ft Threshold 1719 ft Heading 182
Airport Frequencies
Type APP Name CANARIAS A Frequency 129.3 MHZ
Type ATIS Name ATIS Frequency 118.65 MHZ
Type GND Name GND Frequency 121.7 MHZ
Type TWR Name TWR Frequency 118.5 MHZ
Airport Navaids
Type VOR-DME Name Fuerteventura Frequency 114100 KHZ
Airport Weather Information & NOTAM
ADDS - METARS form results

(2228 UTC 04 December 2022)
Data provider http://aviationweather.gov/metar/data/
 
METAR text: GCFV 042200Z 22013KT 9999 FEW025 SCT041 20/17 Q1009
Conditions at: GCFV (FUERTEVENTURA AR, ES) observed 2200 UTC 04 December 2022
Temperature: 20.0°C (68°F)
Dewpoint: 17.0°C (63°F) [RH = 83%]
Pressure (altimeter): 29.79 inches Hg (1009.0 mb)
Winds: from the SW (220 degrees) at 15 MPH (13 knots; 6.7 m/s)
Visibility: 6 or more miles (10+ km)
Ceiling: at least 12,000 feet AGL
Clouds: few clouds at 2500 feet AGL
scattered clouds at 4100 feet AGL
Weather: no significant weather observed at this time

METAR text: GCFV 042130Z 23009KT 200V260 7000 DZ BKN020 BKN027 19/17 Q1010
Conditions at: GCFV (FUERTEVENTURA AR, ES) observed 2130 UTC 04 December 2022
Temperature: 19.0°C (66°F)
Dewpoint: 17.0°C (63°F) [RH = 88%]
Pressure (altimeter): 29.82 inches Hg (1010.0 mb)
Winds: from the SW (230 degrees) at 10 MPH (9 knots; 4.6 m/s)
Visibility: 4 miles ( 7 km)
Ceiling: 2000 feet AGL
Clouds: broken clouds at 2000 feet AGL
broken clouds at 2700 feet AGL
Weather: DZ  (moderate drizzle)

Forecast for: GCFV (FUERTEVENTURA AR, ES)
Text: TAF GCFV 042000Z 0421/0521 22013KT 9999 SCT030 TX24/0514Z TN18/0506Z
Forecast period: 2100 UTC 04 December 2022 to 1700 UTC 05 December 2022
Forecast type: FROM: standard forecast or significant change
Winds: from the SW (220 degrees) at 15 MPH (13 knots; 6.7 m/s)
Visibility: 6 or more miles (10+ km)
Ceiling: at least 12,000 feet AGL
Clouds: scattered clouds at 3000 feet AGL
Weather: no significant weather forecast for this period
Text: PROB30
Forecast period: 2100 UTC 04 December 2022 to 1800 UTC 05 December 2022
Forecast type: TEMPORARY: The following changes expected for less than half the time period
Visibility: missing
Ceiling: unknown
Clouds: missing
Weather: DZ RA  (moderate drizzle, moderate rain)
Text: TEMPO 0421/0518 DZRA
Forecast period: 1700 to 2100 UTC 05 December 2022
Forecast type: BECOMING: Conditions expected to become as follows by 1900 UTC 05 December 2022
Winds: from the WSW (250 degrees) at 3 MPH (3 knots; 1.5 m/s)
Visibility: 6 or more miles (10+ km)
Ceiling: at least 12,000 feet AGL
Clouds: scattered clouds at 3000 feet AGL
Weather: no significant weather forecast for this period